createdAt,value
2018-01-26T00:00:14.089Z,25.37
2018-01-26T00:02:41.744Z,25.40
2018-01-26T00:07:43.126Z,24.70
2018-01-26T00:10:11.039Z,25.30
2018-01-26T00:12:38.604Z,27.20
2018-01-26T00:17:39.902Z,24.80
2018-01-26T00:20:07.529Z,25.47
2018-01-26T00:22:35.102Z,24.70
2018-01-26T00:25:02.658Z,27.33
2018-01-26T00:27:30.513Z,25.20
2018-01-26T00:29:58.082Z,25.10
2018-01-26T00:32:25.672Z,24.87
2018-01-26T00:34:53.285Z,25.20
2018-01-26T00:37:20.837Z,24.03
2018-01-26T00:39:48.424Z,23.33
2018-01-26T00:42:16.015Z,23.60
2018-01-26T00:44:43.639Z,25.07
2018-01-26T00:47:11.463Z,24.10
2018-01-26T00:49:39.132Z,23.97
2018-01-26T00:52:06.701Z,25.07
2018-01-26T00:54:34.282Z,23.50
2018-01-26T00:57:02.184Z,25.57
2018-01-26T00:59:29.742Z,24.37
2018-01-26T01:01:57.305Z,24.70
2018-01-26T01:04:24.951Z,24.17
2018-01-26T01:06:52.806Z,20.93
2018-01-26T01:09:20.389Z,20.80
2018-01-26T01:11:47.986Z,18.90
2018-01-26T01:14:15.793Z,18.33
2018-01-26T01:16:43.355Z,17.23
2018-01-26T01:19:10.951Z,16.47
2018-01-26T01:21:38.517Z,13.90
2018-01-26T01:24:06.085Z,14.47
2018-01-26T01:26:33.670Z,14.47
2018-01-26T01:29:01.586Z,16.00
2018-01-26T01:31:29.209Z,16.77
2018-01-26T01:33:56.791Z,21.70
2018-01-26T01:36:24.355Z,23.77
2018-01-26T01:38:51.940Z,22.77
2018-01-26T01:41:19.607Z,23.20
2018-01-26T01:43:47.164Z,25.40
2018-01-26T01:46:14.721Z,26.10
2018-01-26T01:48:42.356Z,25.30
2018-01-26T01:51:09.944Z,27.17
2018-01-26T01:53:37.525Z,26.57
2018-01-26T01:56:05.187Z,26.30
2018-01-26T01:58:32.757Z,27.40
2018-01-26T02:01:00.814Z,28.80
2018-01-26T02:03:28.434Z,28.20
2018-01-26T02:05:56.043Z,26.80
2018-01-26T02:08:23.611Z,26.73
2018-01-26T02:10:51.537Z,27.47
2018-01-26T02:13:19.097Z,26.70
2018-01-26T02:15:46.976Z,27.00
2018-01-26T02:18:14.672Z,27.40
2018-01-26T02:20:42.222Z,27.17
2018-01-26T02:23:09.781Z,27.57
2018-01-26T02:25:37.409Z,27.23
2018-01-26T02:28:05.206Z,27.47
2018-01-26T02:30:32.776Z,28.20
2018-01-26T02:33:00.368Z,26.47
2018-01-26T02:35:27.919Z,28.20
2018-01-26T02:37:55.500Z,26.67
2018-01-26T02:40:23.246Z,24.87
2018-01-26T02:42:50.812Z,26.70
2018-01-26T02:45:18.356Z,26.93
2018-01-26T02:47:45.957Z,25.77
2018-01-26T02:50:13.510Z,26.00
2018-01-26T02:52:41.079Z,27.20
2018-01-26T02:55:08.676Z,27.40
2018-01-26T02:57:36.236Z,27.57
2018-01-26T03:00:04.187Z,28.67
2018-01-26T03:02:31.838Z,27.60
2018-01-26T03:04:59.462Z,29.60
2018-01-26T03:07:27.122Z,27.23
2018-01-26T03:09:54.701Z,28.90
2018-01-26T03:12:22.500Z,28.37
2018-01-26T03:14:50.044Z,28.43
2018-01-26T03:17:17.937Z,27.23
2018-01-26T03:19:45.485Z,26.17
2018-01-26T03:22:13.047Z,26.60
2018-01-26T03:24:40.876Z,26.47
2018-01-26T03:27:08.681Z,24.83
2018-01-26T03:29:36.555Z,25.60
2018-01-26T03:32:04.185Z,27.20
2018-01-26T03:34:31.751Z,26.90
2018-01-26T03:36:59.365Z,26.00
2018-01-26T03:39:26.930Z,26.67
2018-01-26T03:41:54.490Z,27.10
2018-01-26T03:44:22.060Z,26.40
2018-01-26T03:46:49.639Z,25.33
2018-01-26T03:49:17.258Z,25.80
2018-01-26T03:51:44.888Z,24.40
2018-01-26T03:54:12.778Z,24.17
2018-01-26T03:56:40.398Z,25.73
2018-01-26T03:59:08.013Z,24.27
2018-01-26T04:01:35.595Z,25.17
2018-01-26T04:04:03.357Z,24.20
2018-01-26T04:06:31.309Z,23.77
2018-01-26T04:08:58.910Z,26.07
2018-01-26T04:11:26.474Z,24.57
2018-01-26T04:13:54.043Z,25.13
2018-01-26T04:16:21.788Z,24.83
2018-01-26T04:18:49.617Z,25.30
2018-01-26T04:21:17.480Z,26.20
2018-01-26T04:23:45.074Z,22.97
2018-01-26T04:26:12.644Z,26.83
2018-01-26T04:28:40.229Z,26.73
2018-01-26T04:31:07.855Z,28.30
2018-01-26T04:33:35.421Z,28.70
2018-01-26T04:36:03.083Z,30.73
2018-01-26T04:38:31.147Z,30.27
2018-01-26T04:40:58.766Z,29.20
2018-01-26T04:43:26.436Z,29.40
2018-01-26T04:45:54.230Z,30.60
2018-01-26T04:48:21.789Z,32.13
2018-01-26T04:50:49.451Z,31.87
2018-01-26T04:53:17.123Z,29.30
2018-01-26T04:55:44.689Z,31.20
2018-01-26T04:58:12.531Z,30.00
2018-01-26T05:00:40.126Z,30.83
2018-01-26T05:03:07.695Z,31.50
2018-01-26T05:05:35.312Z,31.03
2018-01-26T05:08:02.900Z,35.33
2018-01-26T05:10:30.744Z,39.53
2018-01-26T05:12:58.347Z,35.27
2018-01-26T05:15:25.957Z,37.00
2018-01-26T05:17:53.520Z,34.63
2018-01-26T05:20:21.052Z,33.53
2018-01-26T05:22:48.632Z,32.00
2018-01-26T05:25:16.664Z,35.17
2018-01-26T05:27:44.231Z,34.30
2018-01-26T05:30:11.871Z,33.80
2018-01-26T05:32:39.464Z,32.27
2018-01-26T05:35:07.273Z,32.97
2018-01-26T05:37:34.874Z,34.07
2018-01-26T05:40:02.448Z,36.50
2018-01-26T05:42:30.068Z,34.63
2018-01-26T05:44:57.668Z,33.73
2018-01-26T05:47:25.258Z,35.87
2018-01-26T05:49:52.962Z,52.90
2018-01-26T05:52:20.626Z,44.20
2018-01-26T05:54:48.206Z,38.10
2018-01-26T05:57:15.766Z,37.93
2018-01-26T05:59:43.698Z,36.40
2018-01-26T06:02:11.272Z,37.70
2018-01-26T06:04:38.860Z,36.47
2018-01-26T06:07:06.441Z,38.27
2018-01-26T06:09:34.008Z,35.40
2018-01-26T06:12:01.663Z,37.77
2018-01-26T06:14:29.217Z,39.20
2018-01-26T06:16:56.896Z,37.40
2018-01-26T06:19:24.478Z,38.63
2018-01-26T06:21:52.128Z,38.37
2018-01-26T06:24:19.871Z,39.73
2018-01-26T06:26:47.488Z,39.27
2018-01-26T06:29:15.110Z,40.50
2018-01-26T06:31:42.688Z,38.40
2018-01-26T06:34:10.269Z,38.80
2018-01-26T06:36:37.871Z,37.90
2018-01-26T06:39:05.470Z,38.63
2018-01-26T06:41:33.030Z,38.43
2018-01-26T06:44:00.652Z,41.20
2018-01-26T06:46:28.251Z,37.97
2018-01-26T06:48:55.871Z,39.60
2018-01-26T06:51:23.472Z,37.80
2018-01-26T06:53:51.053Z,40.83
2018-01-26T06:56:18.713Z,44.70
2018-01-26T06:58:46.314Z,43.53
2018-01-26T07:01:13.951Z,39.80
2018-01-26T07:03:41.924Z,41.23
2018-01-26T07:06:09.546Z,40.13
2018-01-26T07:08:37.211Z,38.53
2018-01-26T07:11:04.793Z,38.80
2018-01-26T07:13:32.359Z,37.57
2018-01-26T07:15:59.948Z,40.70
2018-01-26T07:18:27.525Z,38.63
2018-01-26T07:20:55.130Z,38.10
2018-01-26T07:23:23.088Z,40.70
2018-01-26T07:25:50.722Z,38.00
2018-01-26T07:28:18.325Z,38.83
2018-01-26T07:30:45.937Z,38.83
2018-01-26T07:33:13.553Z,39.13
2018-01-26T07:35:41.103Z,39.80
2018-01-26T07:38:08.694Z,40.07
2018-01-26T07:40:36.296Z,40.77
2018-01-26T07:43:03.921Z,40.63
2018-01-26T07:45:31.580Z,42.00
2018-01-26T07:47:59.205Z,42.03
2018-01-26T07:50:27.105Z,38.90
2018-01-26T07:52:54.974Z,41.70
2018-01-26T07:55:22.840Z,42.23
2018-01-26T07:57:50.702Z,41.93
2018-01-26T08:00:18.480Z,44.07
2018-01-26T08:02:46.340Z,46.33
2018-01-26T08:05:13.920Z,43.70
2018-01-26T08:07:41.944Z,42.50
2018-01-26T08:10:09.607Z,41.70
2018-01-26T08:12:37.616Z,41.13
2018-01-26T08:15:05.846Z,42.57
2018-01-26T08:17:34.497Z,44.90
2018-01-26T08:20:03.352Z,43.90
2018-01-26T08:22:31.086Z,42.13
2018-01-26T08:24:59.098Z,39.93
2018-01-26T08:27:26.707Z,42.07
2018-01-26T08:29:54.869Z,41.87
2018-01-26T08:32:22.807Z,42.23
2018-01-26T08:34:50.675Z,43.33
2018-01-26T08:37:18.343Z,42.10
2018-01-26T08:39:45.950Z,40.67
2018-01-26T08:42:14.125Z,41.10
2018-01-26T08:44:41.715Z,40.30
2018-01-26T08:47:09.361Z,39.90
2018-01-26T08:49:36.926Z,43.80
2018-01-26T08:52:04.820Z,42.30
2018-01-26T08:54:32.431Z,42.43
2018-01-26T08:57:00.042Z,42.47
2018-01-26T08:59:27.653Z,42.30
2018-01-26T09:01:55.404Z,40.67
2018-01-26T09:04:23.059Z,41.80
2018-01-26T09:06:50.663Z,40.87
2018-01-26T09:09:18.237Z,41.80
2018-01-26T09:11:45.826Z,40.73
2018-01-26T09:14:13.701Z,42.00
2018-01-26T09:16:41.945Z,42.40
2018-01-26T09:19:09.571Z,43.40
2018-01-26T09:21:37.397Z,44.23
2018-01-26T09:24:05.065Z,43.23
2018-01-26T09:26:32.688Z,42.30
2018-01-26T09:29:00.267Z,46.37
2018-01-26T09:31:27.888Z,46.00
2018-01-26T09:33:55.517Z,45.37
2018-01-26T09:36:23.150Z,45.43
2018-01-26T09:38:51.046Z,46.83
2018-01-26T09:41:18.604Z,47.27
2018-01-26T09:43:46.170Z,42.60
2018-01-26T09:46:13.779Z,45.90
2018-01-26T09:48:41.429Z,44.47
2018-01-26T09:51:08.978Z,45.13
2018-01-26T09:53:36.551Z,41.80
2018-01-26T09:56:04.144Z,42.90
2018-01-26T09:58:31.705Z,44.63
2018-01-26T10:00:59.314Z,47.50
2018-01-26T10:03:26.914Z,46.17
2018-01-26T10:05:54.609Z,45.13
2018-01-26T10:08:22.217Z,46.40
2018-01-26T10:10:49.809Z,47.10
2018-01-26T10:13:17.392Z,45.30
2018-01-26T10:15:44.960Z,47.60
2018-01-26T10:18:12.839Z,45.80
2018-01-26T10:20:40.528Z,45.90
2018-01-26T10:23:08.120Z,48.37
2018-01-26T10:25:36.036Z,45.00
2018-01-26T10:28:03.599Z,49.20
2018-01-26T10:30:31.198Z,46.57
2018-01-26T10:32:58.787Z,47.60
2018-01-26T10:35:26.381Z,46.67
2018-01-26T10:37:54.337Z,48.13
2018-01-26T10:40:21.966Z,48.40
2018-01-26T10:42:49.575Z,46.73
2018-01-26T10:45:17.169Z,46.10
2018-01-26T10:47:44.758Z,47.43
2018-01-26T10:50:12.384Z,48.97
2018-01-26T10:52:39.978Z,44.03
2018-01-26T10:55:07.569Z,42.63
2018-01-26T10:57:35.155Z,48.60
2018-01-26T11:00:02.765Z,45.67
2018-01-26T11:02:30.399Z,45.30
2018-01-26T11:04:57.986Z,45.03
2018-01-26T11:07:25.654Z,45.10
2018-01-26T11:09:53.272Z,43.77
2018-01-26T11:12:20.921Z,42.13
2018-01-26T11:14:48.590Z,42.80
2018-01-26T11:17:16.204Z,43.90
2018-01-26T11:19:43.769Z,42.57
2018-01-26T11:22:12.245Z,46.20
2018-01-26T11:24:39.840Z,41.77
2018-01-26T11:27:07.433Z,42.20
2018-01-26T11:29:35.064Z,42.23
2018-01-26T11:32:02.634Z,43.50
2018-01-26T11:34:30.264Z,41.40
2018-01-26T11:36:57.842Z,44.20
2018-01-26T11:39:25.496Z,42.70
2018-01-26T11:41:53.372Z,43.67
2018-01-26T11:44:21.034Z,44.50
2018-01-26T11:46:49.003Z,41.90
2018-01-26T11:49:16.608Z,41.40
2018-01-26T11:51:44.428Z,40.77
2018-01-26T11:54:11.990Z,42.00
2018-01-26T11:56:39.580Z,39.20
2018-01-26T11:59:07.172Z,39.93
2018-01-26T12:01:37.129Z,39.97
2018-01-26T12:04:06.281Z,39.07
2018-01-26T12:06:34.196Z,38.00
2018-01-26T12:09:02.124Z,36.97
2018-01-26T12:11:30.129Z,38.40
2018-01-26T12:14:00.360Z,34.40
2018-01-26T12:16:27.955Z,32.50
2018-01-26T12:18:55.596Z,29.33
2018-01-26T12:21:23.428Z,23.43
2018-01-26T12:23:51.035Z,21.30
2018-01-26T12:26:18.615Z,21.10
2018-01-26T12:28:46.563Z,18.27
2018-01-26T12:31:14.216Z,18.57
2018-01-26T12:33:41.811Z,17.37
2018-01-26T12:36:09.414Z,16.93
2018-01-26T12:38:36.977Z,17.63
2018-01-26T12:41:04.584Z,20.93
2018-01-26T12:43:32.448Z,18.47
2018-01-26T12:46:00.011Z,15.03
2018-01-26T12:48:27.630Z,12.60
2018-01-26T12:50:55.197Z,13.30
2018-01-26T12:53:23.079Z,12.50
2018-01-26T12:55:50.904Z,12.50
2018-01-26T12:58:18.479Z,12.00
2018-01-26T13:00:46.048Z,12.13
2018-01-26T13:03:13.928Z,12.83
2018-01-26T13:05:41.748Z,12.40
2018-01-26T13:08:09.315Z,13.23
2018-01-26T13:10:36.919Z,12.67
2018-01-26T13:13:04.508Z,12.87
2018-01-26T13:15:32.085Z,14.20
2018-01-26T13:17:59.664Z,13.20
2018-01-26T13:20:27.580Z,12.30
2018-01-26T13:22:55.171Z,12.47
2018-01-26T13:25:22.791Z,12.80
2018-01-26T13:27:50.360Z,11.93
2018-01-26T13:30:17.974Z,11.90
2018-01-26T13:32:45.573Z,11.77
2018-01-26T13:35:13.474Z,12.80
2018-01-26T13:37:41.064Z,12.30
2018-01-26T13:40:08.687Z,12.63
2018-01-26T13:42:36.277Z,12.00
2018-01-26T13:45:03.852Z,11.90
2018-01-26T13:47:31.444Z,12.17
2018-01-26T13:49:59.012Z,11.77
2018-01-26T13:52:26.608Z,12.57
2018-01-26T13:54:54.238Z,11.93
2018-01-26T13:57:21.902Z,11.23
2018-01-26T13:59:49.494Z,11.73
2018-01-26T14:02:17.122Z,13.10
2018-01-26T14:04:44.732Z,13.73
2018-01-26T14:07:12.280Z,13.07
2018-01-26T14:09:39.861Z,11.33
2018-01-26T14:12:07.502Z,11.60
2018-01-26T14:14:35.056Z,11.50
2018-01-26T14:17:02.674Z,11.47
2018-01-26T14:19:30.300Z,11.50
2018-01-26T14:21:58.052Z,12.57
2018-01-26T14:24:25.621Z,12.20
2018-01-26T14:26:53.221Z,13.40
2018-01-26T14:29:20.848Z,11.87
2018-01-26T14:31:48.430Z,12.27
2018-01-26T14:34:15.993Z,12.70
2018-01-26T14:36:43.595Z,12.97
2018-01-26T14:39:11.228Z,10.90
2018-01-26T14:41:38.807Z,11.43
2018-01-26T14:44:06.388Z,12.07
2018-01-26T14:46:33.939Z,12.60
2018-01-26T14:49:01.554Z,11.60
2018-01-26T14:51:29.171Z,11.93
2018-01-26T14:53:57.266Z,11.80
2018-01-26T14:56:24.830Z,11.60
2018-01-26T14:58:52.390Z,11.70
2018-01-26T15:01:19.986Z,12.83
2018-01-26T15:03:48.189Z,11.43
2018-01-26T15:06:15.804Z,11.83
2018-01-26T15:08:43.399Z,12.27
2018-01-26T15:11:10.982Z,12.17
2018-01-26T15:13:38.616Z,12.87
2018-01-26T15:16:06.200Z,12.67
2018-01-26T15:18:33.772Z,12.33
2018-01-26T15:21:01.463Z,12.23
2018-01-26T15:23:29.072Z,12.50
2018-01-26T15:25:56.687Z,13.30
2018-01-26T15:28:24.300Z,13.37
2018-01-26T15:30:51.883Z,13.53
2018-01-26T15:33:19.465Z,12.70
2018-01-26T15:35:47.365Z,14.47
2018-01-26T15:38:15.004Z,13.60
2018-01-26T15:40:42.591Z,14.40
2018-01-26T15:43:10.212Z,15.07
2018-01-26T15:45:37.770Z,15.37
2018-01-26T15:48:05.336Z,14.53
2018-01-26T15:50:33.001Z,16.10
2018-01-26T15:53:00.655Z,15.00
2018-01-26T15:55:28.737Z,15.10
2018-01-26T15:57:56.336Z,15.37
2018-01-26T16:00:23.934Z,15.27
2018-01-26T16:02:51.544Z,15.23
2018-01-26T16:05:19.199Z,15.63
2018-01-26T16:07:46.810Z,16.20
2018-01-26T16:10:14.385Z,16.80
2018-01-26T16:12:42.002Z,18.20
2018-01-26T16:15:09.551Z,15.73
2018-01-26T16:17:37.121Z,17.33
2018-01-26T16:20:04.837Z,16.93
2018-01-26T16:22:32.702Z,17.40
2018-01-26T16:25:00.677Z,17.00
2018-01-26T16:27:28.360Z,17.00
2018-01-26T16:29:56.201Z,16.90
2018-01-26T16:32:23.858Z,17.67
2018-01-26T16:34:51.437Z,17.20
2018-01-26T16:37:19.298Z,17.60
2018-01-26T16:39:46.846Z,17.67
2018-01-26T16:42:14.396Z,16.63
2018-01-26T16:44:42.009Z,16.93
2018-01-26T16:47:09.577Z,17.30
2018-01-26T16:49:37.668Z,17.60
2018-01-26T16:52:05.260Z,18.13
2018-01-26T16:54:32.893Z,18.13
2018-01-26T16:57:00.508Z,17.00
2018-01-26T16:59:28.086Z,19.30
2018-01-26T17:01:55.922Z,18.97
2018-01-26T17:04:23.505Z,18.83
2018-01-26T17:06:51.344Z,18.70
2018-01-26T17:09:18.936Z,19.43
2018-01-26T17:11:46.554Z,17.90
2018-01-26T17:14:14.233Z,18.60
2018-01-26T17:16:41.808Z,17.70
2018-01-26T17:19:09.400Z,18.90
2018-01-26T17:21:36.981Z,18.03
2018-01-26T17:24:04.644Z,18.53
2018-01-26T17:26:32.322Z,18.80
2018-01-26T17:29:00.227Z,18.33
2018-01-26T17:31:27.805Z,18.10
2018-01-26T17:33:55.414Z,19.50
2018-01-26T17:36:23.011Z,19.00
2018-01-26T17:38:50.969Z,19.43
2018-01-26T17:41:18.586Z,17.50
2018-01-26T17:43:46.183Z,17.93
2018-01-26T17:46:13.815Z,18.30
2018-01-26T17:48:41.728Z,18.30
2018-01-26T17:51:09.345Z,17.63
2018-01-26T17:53:36.889Z,18.10
2018-01-26T17:56:04.462Z,17.57
2018-01-26T17:58:32.097Z,17.83
2018-01-26T18:01:00.051Z,18.10
2018-01-26T18:03:27.707Z,18.33
2018-01-26T18:05:55.273Z,17.70
2018-01-26T18:08:23.129Z,19.23
2018-01-26T18:10:51.100Z,18.77
2018-01-26T18:13:18.727Z,19.43
2018-01-26T18:15:46.405Z,18.37
2018-01-26T18:18:15.855Z,18.17
2018-01-26T18:20:43.476Z,19.03
2018-01-26T18:23:11.569Z,18.57
2018-01-26T18:25:39.181Z,18.60
2018-01-26T18:28:06.745Z,17.87
2018-01-26T18:30:34.377Z,19.97
2018-01-26T18:33:02.091Z,20.67
2018-01-26T18:35:29.724Z,18.20
2018-01-26T18:37:57.331Z,18.97
2018-01-26T18:40:24.929Z,20.10
2018-01-26T18:42:52.544Z,19.00
2018-01-26T18:45:20.431Z,19.67
2018-01-26T18:47:48.052Z,20.87
2018-01-26T18:50:15.646Z,19.53
2018-01-26T18:52:43.210Z,19.93
2018-01-26T18:55:10.795Z,20.60
2018-01-26T18:57:38.410Z,20.30
2018-01-26T19:00:05.983Z,20.00
2018-01-26T19:02:33.546Z,21.23
2018-01-26T19:05:01.439Z,20.27
2018-01-26T19:07:29.309Z,22.50
2018-01-26T19:09:56.910Z,20.80
2018-01-26T19:12:24.820Z,20.07
2018-01-26T19:14:52.399Z,22.20
2018-01-26T19:17:20.050Z,21.87
2018-01-26T19:19:47.713Z,21.57
2018-01-26T19:22:15.275Z,22.03
2018-01-26T19:24:42.911Z,22.73
2018-01-26T19:27:13.963Z,21.43
2018-01-26T19:29:41.747Z,20.80
2018-01-26T19:32:09.348Z,21.27
2018-01-26T19:34:36.943Z,20.30
2018-01-26T19:37:04.576Z,22.00
2018-01-26T19:39:32.197Z,21.00
2018-01-26T19:41:59.798Z,21.37
2018-01-26T19:44:27.511Z,23.10
2018-01-26T19:46:55.079Z,21.83
2018-01-26T19:49:22.730Z,21.30
2018-01-26T19:51:50.321Z,21.90
2018-01-26T19:54:17.893Z,21.23
2018-01-26T19:56:45.507Z,22.03
2018-01-26T19:59:13.104Z,23.87
2018-01-26T20:01:40.703Z,21.93
2018-01-26T20:04:08.474Z,23.50
2018-01-26T20:06:53.493Z,24.27
2018-01-26T20:09:25.841Z,24.40
2018-01-26T20:11:59.203Z,24.23
2018-01-26T20:14:27.455Z,22.90
2018-01-26T20:16:55.127Z,24.73
2018-01-26T20:19:23.074Z,24.90
2018-01-26T20:21:50.657Z,23.87
2018-01-26T20:24:19.114Z,22.97
2018-01-26T20:26:47.081Z,23.53
2018-01-26T20:29:14.681Z,24.77
2018-01-26T20:31:42.282Z,23.40
2018-01-26T20:34:10.166Z,23.37
2018-01-26T20:36:37.825Z,24.00
2018-01-26T20:39:05.428Z,24.53
2018-01-26T20:41:33.019Z,24.13
2018-01-26T20:44:00.631Z,25.20
2018-01-26T20:46:28.211Z,23.70
2018-01-26T20:48:55.804Z,24.33
2018-01-26T20:51:23.447Z,24.20
2018-01-26T20:53:51.038Z,23.90
2018-01-26T20:56:18.713Z,25.93
2018-01-26T20:58:46.295Z,25.17
2018-01-26T21:01:13.954Z,26.40
2018-01-26T21:03:41.558Z,25.73
2018-01-26T21:06:09.380Z,26.17
2018-01-26T21:08:36.989Z,26.13
2018-01-26T21:11:04.821Z,25.90
2018-01-26T21:13:32.412Z,26.33
2018-01-26T21:15:59.976Z,25.37
2018-01-26T21:18:27.584Z,25.33
2018-01-26T21:20:55.211Z,25.87
2018-01-26T21:23:22.802Z,25.57
2018-01-26T21:25:50.395Z,25.73
2018-01-26T21:28:17.976Z,25.50
2018-01-26T21:30:45.524Z,26.83
2018-01-26T21:33:13.117Z,27.57
2018-01-26T21:35:40.708Z,25.97
2018-01-26T21:38:08.388Z,27.40
2018-01-26T21:40:35.967Z,28.10
2018-01-26T21:43:03.530Z,26.77
2018-01-26T21:45:31.100Z,29.00
2018-01-26T21:47:58.706Z,26.30
2018-01-26T21:50:27.255Z,27.70
2018-01-26T21:52:54.823Z,27.17
2018-01-26T21:55:22.404Z,26.30
2018-01-26T21:57:50.006Z,27.77
2018-01-26T22:00:17.577Z,28.50
2018-01-26T22:02:45.172Z,28.03
2018-01-26T22:05:15.806Z,26.60
2018-01-26T22:07:43.432Z,27.90
2018-01-26T22:10:11.057Z,26.90
2018-01-26T22:12:38.686Z,27.47
2018-01-26T22:15:06.316Z,28.10
2018-01-26T22:17:34.182Z,29.97
2018-01-26T22:20:02.191Z,29.43
2018-01-26T22:22:29.818Z,28.33
2018-01-26T22:24:57.413Z,29.47
2018-01-26T22:27:25.070Z,28.30
2018-01-26T22:29:52.657Z,29.17
2018-01-26T22:32:20.559Z,30.77
2018-01-26T22:34:48.189Z,32.23
2018-01-26T22:37:15.780Z,30.73
2018-01-26T22:39:43.381Z,30.93
2018-01-26T22:42:10.965Z,31.10
2018-01-26T22:44:38.529Z,31.80
2018-01-26T22:47:06.434Z,30.07
2018-01-26T22:49:33.981Z,30.93
2018-01-26T22:52:02.501Z,30.80
2018-01-26T22:54:30.120Z,30.50
2018-01-26T22:56:57.705Z,31.40
2018-01-26T22:59:25.347Z,33.40
2018-01-26T23:01:52.937Z,32.27
2018-01-26T23:04:20.785Z,32.07
2018-01-26T23:06:48.384Z,31.30
2018-01-26T23:09:15.972Z,32.20
2018-01-26T23:11:43.880Z,35.60
2018-01-26T23:14:11.513Z,32.27
2018-01-26T23:16:39.077Z,32.63
2018-01-26T23:19:06.971Z,32.27
2018-01-26T23:21:36.073Z,33.03
2018-01-26T23:24:03.955Z,33.87
2018-01-26T23:26:32.311Z,32.73
2018-01-26T23:28:59.878Z,34.00
2018-01-26T23:31:27.504Z,34.20
2018-01-26T23:33:55.181Z,31.93
2018-01-26T23:36:22.746Z,33.10
2018-01-26T23:38:50.351Z,33.03
2018-01-26T23:41:18.289Z,34.30
2018-01-26T23:43:45.869Z,31.33
2018-01-26T23:46:13.446Z,34.10
2018-01-26T23:48:41.389Z,32.13
2018-01-26T23:51:08.986Z,33.23
2018-01-26T23:53:36.550Z,35.77
2018-01-26T23:56:04.144Z,32.93
2018-01-26T23:58:31.791Z,32.80
